createdAt,value
2023-03-03T00:00:01.797Z,21.38
2023-03-03T00:05:10.115Z,22.10
2023-03-03T00:10:15.726Z,26.42
2023-03-03T00:15:21.597Z,25.90
2023-03-03T00:20:33.636Z,21.83
2023-03-03T00:25:38.576Z,25.35
2023-03-03T00:30:43.263Z,23.45
2023-03-03T00:35:50.652Z,21.50
2023-03-03T00:40:55.586Z,22.88
2023-03-03T00:46:00.874Z,25.95
2023-03-03T00:51:13.956Z,22.08
2023-03-03T00:56:18.752Z,24.20
2023-03-03T01:01:25.724Z,20.70
2023-03-03T01:06:33.181Z,20.95
2023-03-03T01:11:37.962Z,24.27
2023-03-03T01:16:43.460Z,24.25
2023-03-03T01:21:51.045Z,24.52
2023-03-03T01:26:55.902Z,22.88
2023-03-03T01:32:00.897Z,23.13
2023-03-03T01:37:08.432Z,25.33
2023-03-03T01:42:13.245Z,23.95
2023-03-03T01:47:19.289Z,25.83
2023-03-03T01:52:30.167Z,25.13
2023-03-03T01:57:36.422Z,23.75
2023-03-03T02:02:41.680Z,21.80
2023-03-03T02:07:49.215Z,26.63
2023-03-03T02:12:55.139Z,21.88
2023-03-03T02:18:01.131Z,24.23
2023-03-03T02:23:11.510Z,22.58
2023-03-03T02:33:23.428Z,23.08
2023-03-03T02:38:30.759Z,21.92
2023-03-03T02:43:37.390Z,33.80
2023-03-03T02:48:44.884Z,38.20
2023-03-03T02:53:49.803Z,31.83
2023-03-03T02:58:54.654Z,29.27
2023-03-03T03:04:02.061Z,23.05
2023-03-03T03:09:07.457Z,18.33
2023-03-03T03:14:13.548Z,25.00
2023-03-03T03:19:21.000Z,21.90
2023-03-03T03:24:25.702Z,22.33
2023-03-03T03:29:30.544Z,27.33
2023-03-03T03:34:37.994Z,23.30
2023-03-03T03:39:45.628Z,23.52
2023-03-03T03:44:51.350Z,23.58
2023-03-03T03:49:58.914Z,27.27
2023-03-03T03:55:03.718Z,24.10
2023-03-03T04:00:09.040Z,21.73
2023-03-03T04:05:16.449Z,22.00
2023-03-03T04:10:21.539Z,22.30
2023-03-03T04:15:26.567Z,21.73
2023-03-03T04:20:34.057Z,23.92
2023-03-03T04:25:38.778Z,26.50
2023-03-03T04:30:43.852Z,25.75
2023-03-03T04:35:51.622Z,22.40
2023-03-03T04:40:56.592Z,22.85
2023-03-03T04:46:01.455Z,25.73
2023-03-03T04:51:11.635Z,25.63
2023-03-03T04:56:16.315Z,21.98
2023-03-03T05:01:21.147Z,25.42
2023-03-03T05:06:28.546Z,23.83
2023-03-03T05:11:33.463Z,25.77
2023-03-03T05:16:38.186Z,28.00
2023-03-03T05:21:45.851Z,25.90
2023-03-03T05:26:50.669Z,29.85
2023-03-03T05:31:55.648Z,29.40
2023-03-03T05:37:03.966Z,28.83
2023-03-03T05:42:09.064Z,32.95
2023-03-03T05:47:14.813Z,38.50
2023-03-03T05:52:22.698Z,50.08
2023-03-03T05:57:27.845Z,198.98
2023-03-03T06:02:32.728Z,186.05
2023-03-03T06:07:40.369Z,146.73
2023-03-03T06:12:45.287Z,80.05
2023-03-03T06:17:50.300Z,98.38
2023-03-03T06:22:57.778Z,164.77
2023-03-03T06:28:02.731Z,188.18
2023-03-03T06:33:07.570Z,36.85
2023-03-03T06:38:15.102Z,45.95
2023-03-03T06:43:19.913Z,83.32
2023-03-03T06:48:24.682Z,42.03
2023-03-03T06:53:35.835Z,28.20
2023-03-03T06:58:43.361Z,30.65
2023-03-03T07:03:48.835Z,32.47
2023-03-03T07:08:57.984Z,27.92
2023-03-03T07:14:02.969Z,26.73
2023-03-03T07:19:07.789Z,29.33
2023-03-03T07:24:21.954Z,29.48
2023-03-03T07:29:28.162Z,29.38
2023-03-03T07:34:38.993Z,31.08
2023-03-03T07:39:47.872Z,27.85
2023-03-03T07:44:54.740Z,33.05
2023-03-03T07:50:02.985Z,29.80
2023-03-03T07:55:23.445Z,30.00
2023-03-03T08:00:43.060Z,27.40
2023-03-03T08:05:50.112Z,27.67
2023-03-03T08:10:58.432Z,29.83
2023-03-03T08:16:09.047Z,33.10
2023-03-03T08:21:14.735Z,26.15
2023-03-03T08:26:22.668Z,27.88
2023-03-03T08:31:40.283Z,28.00
2023-03-03T08:36:47.758Z,27.23
2023-03-03T08:41:55.516Z,28.60
2023-03-03T08:47:00.395Z,25.20
2023-03-03T08:52:05.234Z,122.30
2023-03-03T08:57:12.967Z,58.08
2023-03-03T09:02:18.192Z,50.78
2023-03-03T09:07:25.762Z,44.10
2023-03-03T09:12:37.314Z,93.53
2023-03-03T09:17:42.071Z,136.68
2023-03-03T09:22:48.016Z,162.10
2023-03-03T09:27:55.818Z,23.50
2023-03-03T09:33:00.905Z,23.17
2023-03-03T09:38:09.587Z,69.35
2023-03-03T09:43:25.094Z,26.42
2023-03-03T09:48:36.065Z,20.65
2023-03-03T09:53:45.773Z,32.83
2023-03-03T09:59:01.223Z,25.55
2023-03-03T10:04:18.142Z,25.98
2023-03-03T10:09:37.638Z,23.25
2023-03-03T10:15:05.009Z,23.73
2023-03-03T10:20:15.812Z,22.05
2023-03-03T10:25:25.434Z,21.23
2023-03-03T10:30:48.560Z,63.42
2023-03-03T10:36:11.114Z,29.83
2023-03-03T10:41:25.565Z,17.52
2023-03-03T10:46:41.155Z,21.15
2023-03-03T10:51:56.383Z,20.98
2023-03-03T10:57:03.886Z,19.75
2023-03-03T11:02:19.259Z,19.48
2023-03-03T11:07:26.674Z,21.52
2023-03-03T11:12:36.866Z,19.05
2023-03-03T11:17:51.817Z,25.90
2023-03-03T11:23:00.142Z,32.33
2023-03-03T11:28:19.341Z,17.25
2023-03-03T11:33:32.895Z,19.02
2023-03-03T11:38:45.128Z,17.50
2023-03-03T11:43:52.426Z,18.13
2023-03-03T11:49:02.798Z,18.83
2023-03-03T11:54:10.724Z,20.60
2023-03-03T11:59:30.428Z,15.50
2023-03-03T12:04:40.380Z,15.77
2023-03-03T12:09:50.215Z,17.15
2023-03-03T12:15:05.798Z,18.75
2023-03-03T12:20:19.283Z,19.65
2023-03-03T12:25:32.890Z,26.38
2023-03-03T12:31:01.511Z,16.02
2023-03-03T12:36:14.574Z,18.10
2023-03-03T12:41:27.430Z,16.23
2023-03-03T12:46:37.021Z,17.40
2023-03-03T12:51:51.450Z,18.35
2023-03-03T12:56:57.924Z,14.02
2023-03-03T13:02:08.656Z,14.02
2023-03-03T13:07:20.479Z,14.00
2023-03-03T13:12:38.311Z,16.05
2023-03-03T13:17:49.434Z,17.10
2023-03-03T13:22:59.582Z,17.70
2023-03-03T13:28:05.868Z,22.55
2023-03-03T13:33:13.563Z,15.23
2023-03-03T13:38:23.640Z,17.85
2023-03-03T13:48:48.405Z,16.00
2023-03-03T13:54:00.454Z,17.10
2023-03-03T13:59:12.633Z,19.75
2023-03-03T14:04:20.769Z,17.58
2023-03-03T14:09:35.213Z,16.13
2023-03-03T14:14:45.689Z,16.23
2023-03-03T14:19:52.333Z,15.20
2023-03-03T14:25:03.182Z,16.63
2023-03-03T14:30:35.682Z,15.77
2023-03-03T14:35:41.618Z,17.77
2023-03-03T14:40:49.496Z,14.75
2023-03-03T14:45:55.556Z,17.17
2023-03-03T14:51:05.395Z,19.65
2023-03-03T14:56:24.189Z,17.48
2023-03-03T15:01:34.308Z,14.95
2023-03-03T15:06:40.505Z,16.70
2023-03-03T15:11:47.880Z,22.50
2023-03-03T15:16:52.885Z,17.35
2023-03-03T15:22:02.606Z,16.30
2023-03-03T15:27:14.190Z,16.17
2023-03-03T15:32:22.502Z,17.25
2023-03-03T15:37:35.668Z,17.48
2023-03-03T15:42:46.584Z,18.92
2023-03-03T15:52:59.700Z,19.33
2023-03-03T15:58:15.841Z,17.77
2023-03-03T16:03:23.042Z,20.67
2023-03-03T16:08:33.731Z,19.15
2023-03-03T16:13:53.330Z,19.80
2023-03-03T16:19:04.276Z,18.60
2023-03-03T16:24:13.910Z,19.13
2023-03-03T16:29:39.669Z,20.50
2023-03-03T16:34:50.745Z,20.42
2023-03-03T16:39:58.146Z,17.42
2023-03-03T16:45:08.354Z,19.83
2023-03-03T16:55:23.119Z,21.98
2023-03-03T17:00:30.529Z,26.02
2023-03-03T17:05:42.841Z,27.60
2023-03-03T17:10:54.284Z,32.05
2023-03-03T17:16:06.277Z,27.42
2023-03-03T17:21:17.541Z,27.50
2023-03-03T17:26:33.395Z,25.13
2023-03-03T17:31:44.601Z,30.63
2023-03-03T17:36:55.130Z,33.45
2023-03-03T17:42:06.081Z,32.83
2023-03-03T17:47:13.936Z,36.45
2023-03-03T17:52:29.625Z,41.63
2023-03-03T17:57:47.375Z,39.28
2023-03-03T18:03:10.006Z,50.22
2023-03-03T18:08:27.497Z,58.00
2023-03-03T18:13:50.293Z,61.95
2023-03-03T18:19:06.239Z,63.20
2023-03-03T18:24:28.285Z,66.57
2023-03-03T18:29:33.000Z,68.28
2023-03-03T18:34:42.261Z,69.00
2023-03-03T18:39:48.497Z,78.38
2023-03-03T18:44:53.215Z,76.68
2023-03-03T18:50:05.785Z,76.85
2023-03-03T18:55:28.044Z,92.35
2023-03-03T19:00:33.290Z,120.10
2023-03-03T19:05:51.090Z,116.63
2023-03-03T19:10:57.555Z,112.32
2023-03-03T19:16:04.251Z,81.80
2023-03-03T19:21:26.022Z,78.28
2023-03-03T19:26:39.290Z,83.80
2023-03-03T19:31:47.801Z,72.80
2023-03-03T19:37:03.446Z,66.80
2023-03-03T19:42:10.263Z,73.07
2023-03-03T19:47:20.521Z,74.15
2023-03-03T19:57:39.138Z,81.82
2023-03-03T20:02:51.025Z,73.38
2023-03-03T20:08:01.204Z,79.38
2023-03-03T20:13:20.124Z,70.15
2023-03-03T20:18:32.528Z,74.10
2023-03-03T20:23:40.331Z,68.20
2023-03-03T20:29:08.658Z,70.82
2023-03-03T20:34:17.600Z,105.68
2023-03-03T20:39:29.375Z,79.35
2023-03-03T20:44:42.838Z,74.15
2023-03-03T20:49:59.339Z,78.05
2023-03-03T20:55:11.764Z,70.40
2023-03-03T21:00:35.458Z,87.53
2023-03-03T21:05:56.496Z,82.85
2023-03-03T21:11:03.873Z,79.57
2023-03-03T21:16:14.215Z,82.35
2023-03-03T21:21:19.130Z,85.65
2023-03-03T21:26:41.603Z,89.68
2023-03-03T21:31:52.721Z,89.05
2023-03-03T21:36:58.263Z,69.82
2023-03-03T21:42:04.421Z,70.88
2023-03-03T21:47:13.192Z,78.00
2023-03-03T21:52:19.063Z,65.28
2023-03-03T21:57:25.611Z,70.43
2023-03-03T22:02:33.843Z,65.28
2023-03-03T22:07:38.694Z,71.43
2023-03-03T22:12:43.537Z,62.63
2023-03-03T22:17:51.327Z,71.20
2023-03-03T22:22:56.261Z,63.67
2023-03-03T22:28:01.147Z,64.25
2023-03-03T22:33:08.703Z,70.63
2023-03-03T22:38:13.546Z,82.72
2023-03-03T22:43:18.339Z,59.03
2023-03-03T22:48:26.195Z,65.05
2023-03-03T22:53:31.147Z,55.05
2023-03-03T22:58:35.985Z,72.55
2023-03-03T23:03:43.418Z,71.90
2023-03-03T23:08:48.238Z,76.00
2023-03-03T23:13:54.175Z,66.93
2023-03-03T23:19:02.357Z,64.97
2023-03-03T23:24:07.601Z,72.30
2023-03-03T23:29:12.377Z,68.60
2023-03-03T23:34:20.983Z,70.05
2023-03-03T23:39:25.777Z,79.40
2023-03-03T23:44:30.767Z,65.40
2023-03-03T23:49:42.814Z,63.92
2023-03-03T23:54:47.748Z,62.17
2023-03-03T23:59:52.813Z,58.28
